sensor_id;sensor_type;location;lat;lon;timestamp;pressure;altitude;pressure_sealevel;temperature;humidity
59315;BME280;46521;50.160;20.802;2023-04-15T00:08:56;98503.75;;;10.72;64.32
59315;BME280;46521;50.160;20.802;2023-04-15T00:18:57;98481.13;;;10.62;64.42
59315;BME280;46521;50.160;20.802;2023-04-15T00:28:59;98483.75;;;10.56;64.62
59315;BME280;46521;50.160;20.802;2023-04-15T00:39:00;98479.25;;;10.50;64.80
59315;BME280;46521;50.160;20.802;2023-04-15T00:49:04;98495.47;;;10.40;64.38
59315;BME280;46521;50.160;20.802;2023-04-15T00:59:07;98495.36;;;10.26;64.73
59315;BME280;46521;50.160;20.802;2023-04-15T01:09:09;98503.05;;;10.21;64.70
59315;BME280;46521;50.160;20.802;2023-04-15T01:19:13;98494.52;;;10.19;65.03
59315;BME280;46521;50.160;20.802;2023-04-15T01:29:18;98483.34;;;10.17;64.70
59315;BME280;46521;50.160;20.802;2023-04-15T01:39:19;98513.17;;;10.11;64.76
59315;BME280;46521;50.160;20.802;2023-04-15T01:49:21;98512.14;;;10.12;64.34
59315;BME280;46521;50.160;20.802;2023-04-15T01:59:22;98504.37;;;10.04;65.12
59315;BME280;46521;50.160;20.802;2023-04-15T02:09:24;98519.80;;;10.00;64.67
59315;BME280;46521;50.160;20.802;2023-04-15T02:19:25;98523.39;;;9.92;64.91
59315;BME280;46521;50.160;20.802;2023-04-15T02:29:27;98523.63;;;9.98;64.56
59315;BME280;46521;50.160;20.802;2023-04-15T02:39:28;98522.36;;;9.93;64.47
59315;BME280;46521;50.160;20.802;2023-04-15T02:49:30;98537.17;;;9.88;64.59
59315;BME280;46521;50.160;20.802;2023-04-15T02:59:31;98527.13;;;9.77;64.24
59315;BME280;46521;50.160;20.802;2023-04-15T03:09:33;98532.52;;;9.68;64.41
59315;BME280;46521;50.160;20.802;2023-04-15T03:19:35;98539.77;;;9.60;64.70
59315;BME280;46521;50.160;20.802;2023-04-15T03:29:36;98540.52;;;9.53;64.61
59315;BME280;46521;50.160;20.802;2023-04-15T03:39:38;98539.95;;;9.36;65.03
59315;BME280;46521;50.160;20.802;2023-04-15T03:49:39;98563.16;;;9.26;64.83
59315;BME280;46521;50.160;20.802;2023-04-15T03:59:41;98558.80;;;9.33;64.54
59315;BME280;46521;50.160;20.802;2023-04-15T04:09:43;98556.95;;;9.34;64.41
59315;BME280;46521;50.160;20.802;2023-04-15T04:19:44;98564.63;;;9.29;64.62
59315;BME280;46521;50.160;20.802;2023-04-15T04:29:46;98564.31;;;9.17;64.78
59315;BME280;46521;50.160;20.802;2023-04-15T04:39:49;98579.95;;;9.18;65.05
59315;BME280;46521;50.160;20.802;2023-04-15T04:49:51;98576.66;;;9.16;64.75
59315;BME280;46521;50.160;20.802;2023-04-15T04:59:52;98584.02;;;9.21;64.53
59315;BME280;46521;50.160;20.802;2023-04-15T05:09:54;98584.19;;;9.34;64.42
59315;BME280;46521;50.160;20.802;2023-04-15T05:19:55;98602.59;;;9.49;64.58
59315;BME280;46521;50.160;20.802;2023-04-15T05:29:57;98607.19;;;9.62;64.52
59315;BME280;46521;50.160;20.802;2023-04-15T05:39:58;98612.62;;;9.76;63.38
59315;BME280;46521;50.160;20.802;2023-04-15T05:50:00;98620.46;;;9.90;63.81
59315;BME280;46521;50.160;20.802;2023-04-15T06:00:03;98632.54;;;10.00;63.49
59315;BME280;46521;50.160;20.802;2023-04-15T06:10:05;98631.67;;;10.14;63.23
59315;BME280;46521;50.160;20.802;2023-04-15T06:20:08;98649.00;;;10.23;63.34
59315;BME280;46521;50.160;20.802;2023-04-15T06:30:10;98654.30;;;10.45;62.64
59315;BME280;46521;50.160;20.802;2023-04-15T06:40:12;98665.64;;;10.67;62.91
59315;BME280;46521;50.160;20.802;2023-04-15T06:50:13;98668.15;;;11.10;62.30
59315;BME280;46521;50.160;20.802;2023-04-15T07:00:15;98672.28;;;11.81;61.71
59315;BME280;46521;50.160;20.802;2023-04-15T07:10:17;98672.58;;;12.60;60.87
59315;BME280;46521;50.160;20.802;2023-04-15T07:20:19;98682.73;;;13.03;60.45
59315;BME280;46521;50.160;20.802;2023-04-15T07:30:21;98694.38;;;13.02;59.00
59315;BME280;46521;50.160;20.802;2023-04-15T07:40:22;98691.34;;;12.78;58.93
59315;BME280;46521;50.160;20.802;2023-04-15T07:50:24;98694.72;;;13.26;58.14
59315;BME280;46521;50.160;20.802;2023-04-15T08:00:26;98690.59;;;13.88;57.78
59315;BME280;46521;50.160;20.802;2023-04-15T08:10:28;98714.39;;;13.77;57.12
59315;BME280;46521;50.160;20.802;2023-04-15T08:20:30;98711.64;;;13.51;57.25
59315;BME280;46521;50.160;20.802;2023-04-15T08:30:32;98697.38;;;13.32;55.92
59315;BME280;46521;50.160;20.802;2023-04-15T08:40:42;98717.83;;;13.19;56.45
59315;BME280;46521;50.160;20.802;2023-04-15T08:50:45;98712.13;;;13.15;56.16
59315;BME280;46521;50.160;20.802;2023-04-15T09:00:46;98719.22;;;13.41;55.88
59315;BME280;46521;50.160;20.802;2023-04-15T09:10:48;98716.14;;;13.44;55.53
59315;BME280;46521;50.160;20.802;2023-04-15T09:20:52;98698.83;;;13.80;55.25
59315;BME280;46521;50.160;20.802;2023-04-15T09:31:00;98704.98;;;13.74;54.65
59315;BME280;46521;50.160;20.802;2023-04-15T09:41:02;98701.78;;;13.59;54.69
59315;BME280;46521;50.160;20.802;2023-04-15T09:51:04;98700.59;;;13.55;55.03
59315;BME280;46521;50.160;20.802;2023-04-15T10:01:06;98708.06;;;13.78;54.86
59315;BME280;46521;50.160;20.802;2023-04-15T10:11:09;98707.17;;;14.22;54.14
59315;BME280;46521;50.160;20.802;2023-04-15T10:21:10;98704.51;;;14.22;53.69
59315;BME280;46521;50.160;20.802;2023-04-15T10:31:14;98704.56;;;14.16;53.82
59315;BME280;46521;50.160;20.802;2023-04-15T10:51:30;98695.78;;;14.15;53.72
59315;BME280;46521;50.160;20.802;2023-04-15T11:01:57;98696.02;;;14.39;53.51
59315;BME280;46521;50.160;20.802;2023-04-15T11:22:10;98692.20;;;14.28;52.76
59315;BME280;46521;50.160;20.802;2023-04-15T11:32:12;98696.05;;;14.57;52.46
59315;BME280;46521;50.160;20.802;2023-04-15T11:42:17;98707.72;;;14.63;52.25
59315;BME280;46521;50.160;20.802;2023-04-15T11:52:19;98711.43;;;14.55;52.32
59315;BME280;46521;50.160;20.802;2023-04-15T12:02:30;98714.23;;;14.35;52.12
59315;BME280;46521;50.160;20.802;2023-04-15T12:12:32;98713.51;;;14.21;52.77
59315;BME280;46521;50.160;20.802;2023-04-15T12:22:37;98723.55;;;14.19;52.61
59315;BME280;46521;50.160;20.802;2023-04-15T12:32:38;98721.48;;;14.21;52.50
59315;BME280;46521;50.160;20.802;2023-04-15T12:42:40;98721.38;;;14.10;52.32
59315;BME280;46521;50.160;20.802;2023-04-15T12:52:41;98750.23;;;14.06;51.89
59315;BME280;46521;50.160;20.802;2023-04-15T13:02:43;98755.56;;;13.99;52.22
59315;BME280;46521;50.160;20.802;2023-04-15T13:12:45;98749.44;;;13.99;51.70
59315;BME280;46521;50.160;20.802;2023-04-15T13:22:48;98750.33;;;13.86;52.26
59315;BME280;46521;50.160;20.802;2023-04-15T13:32:49;98759.95;;;13.80;52.41
59315;BME280;46521;50.160;20.802;2023-04-15T13:42:51;98756.45;;;13.86;51.86
59315;BME280;46521;50.160;20.802;2023-04-15T13:52:53;98755.26;;;13.82;51.54
59315;BME280;46521;50.160;20.802;2023-04-15T14:02:55;98761.25;;;14.10;51.00
59315;BME280;46521;50.160;20.802;2023-04-15T14:12:56;98771.69;;;14.43;50.63
59315;BME280;46521;50.160;20.802;2023-04-15T14:22:58;98772.58;;;14.69;49.69
59315;BME280;46521;50.160;20.802;2023-04-15T14:33:00;98779.64;;;14.82;48.61
59315;BME280;46521;50.160;20.802;2023-04-15T14:43:02;98781.52;;;15.00;48.98
59315;BME280;46521;50.160;20.802;2023-04-15T14:53:03;98777.20;;;14.80;48.20
59315;BME280;46521;50.160;20.802;2023-04-15T15:03:05;98791.25;;;14.87;48.41
59315;BME280;46521;50.160;20.802;2023-04-15T15:13:12;98807.41;;;14.92;48.26
59315;BME280;46521;50.160;20.802;2023-04-15T15:23:14;98820.96;;;14.84;48.52
59315;BME280;46521;50.160;20.802;2023-04-15T15:33:15;98832.23;;;14.48;48.56
59315;BME280;46521;50.160;20.802;2023-04-15T15:43:17;98824.68;;;14.06;48.28
59315;BME280;46521;50.160;20.802;2023-04-15T15:53:18;98834.34;;;13.87;48.47
59315;BME280;46521;50.160;20.802;2023-04-15T16:03:24;98835.42;;;13.66;48.81
59315;BME280;46521;50.160;20.802;2023-04-15T16:13:26;98837.89;;;13.54;49.43
59315;BME280;46521;50.160;20.802;2023-04-15T16:23:28;98851.00;;;13.42;49.80
59315;BME280;46521;50.160;20.802;2023-04-15T16:33:29;98858.55;;;13.19;49.24
59315;BME280;46521;50.160;20.802;2023-04-15T16:43:31;98864.88;;;13.04;49.96
59315;BME280;46521;50.160;20.802;2023-04-15T16:53:32;98863.61;;;12.87;49.98
59315;BME280;46521;50.160;20.802;2023-04-15T17:03:34;98889.30;;;12.66;50.28
59315;BME280;46521;50.160;20.802;2023-04-15T17:13:37;98902.45;;;12.33;50.74
59315;BME280;46521;50.160;20.802;2023-04-15T17:23:38;98917.65;;;12.11;51.41
59315;BME280;46521;50.160;20.802;2023-04-15T17:33:41;98927.67;;;11.87;51.35
59315;BME280;46521;50.160;20.802;2023-04-15T17:43:44;98950.11;;;11.63;50.94
59315;BME280;46521;50.160;20.802;2023-04-15T17:53:46;98983.50;;;11.35;51.54
59315;BME280;46521;50.160;20.802;2023-04-15T18:03:47;99010.80;;;11.14;52.12
59315;BME280;46521;50.160;20.802;2023-04-15T18:13:49;99023.98;;;10.93;51.91
59315;BME280;46521;50.160;20.802;2023-04-15T18:23:50;99036.15;;;10.72;52.43
59315;BME280;46521;50.160;20.802;2023-04-15T18:33:52;99059.94;;;10.57;52.53
59315;BME280;46521;50.160;20.802;2023-04-15T18:43:53;99074.34;;;10.40;52.92
59315;BME280;46521;50.160;20.802;2023-04-15T18:53:56;99076.11;;;10.24;52.92
59315;BME280;46521;50.160;20.802;2023-04-15T19:03:57;99090.24;;;9.93;53.32
59315;BME280;46521;50.160;20.802;2023-04-15T19:13:59;99106.58;;;9.74;53.91
59315;BME280;46521;50.160;20.802;2023-04-15T19:24:01;99118.89;;;9.59;53.72
59315;BME280;46521;50.160;20.802;2023-04-15T19:34:03;99123.42;;;9.50;54.39
59315;BME280;46521;50.160;20.802;2023-04-15T19:44:05;99125.39;;;9.48;54.41
59315;BME280;46521;50.160;20.802;2023-04-15T19:54:06;99130.89;;;9.38;54.91
59315;BME280;46521;50.160;20.802;2023-04-15T20:04:08;99137.20;;;9.29;55.12
59315;BME280;46521;50.160;20.802;2023-04-15T20:14:09;99143.55;;;9.11;56.11
59315;BME280;46521;50.160;20.802;2023-04-15T20:24:11;99152.35;;;8.95;55.81
59315;BME280;46521;50.160;20.802;2023-04-15T20:34:12;99148.45;;;8.75;55.94
59315;BME280;46521;50.160;20.802;2023-04-15T20:44:14;99155.41;;;8.59;55.99
59315;BME280;46521;50.160;20.802;2023-04-15T20:54:15;99161.67;;;8.50;56.32
59315;BME280;46521;50.160;20.802;2023-04-15T21:04:19;99166.78;;;8.52;56.96
59315;BME280;46521;50.160;20.802;2023-04-15T21:14:22;99177.97;;;8.54;57.74
59315;BME280;46521;50.160;20.802;2023-04-15T21:24:23;99191.14;;;8.54;57.53
59315;BME280;46521;50.160;20.802;2023-04-15T21:34:25;99183.09;;;8.47;57.69
59315;BME280;46521;50.160;20.802;2023-04-15T21:44:27;99189.50;;;8.44;58.10
59315;BME280;46521;50.160;20.802;2023-04-15T21:54:28;99212.54;;;8.42;58.06
59315;BME280;46521;50.160;20.802;2023-04-15T22:04:31;99215.19;;;8.34;58.92
59315;BME280;46521;50.160;20.802;2023-04-15T22:14:32;99221.59;;;8.23;58.56
59315;BME280;46521;50.160;20.802;2023-04-15T22:24:34;99225.04;;;8.07;58.81
59315;BME280;46521;50.160;20.802;2023-04-15T22:34:36;99232.26;;;8.05;59.74
59315;BME280;46521;50.160;20.802;2023-04-15T22:44:38;99254.29;;;7.96;59.11
59315;BME280;46521;50.160;20.802;2023-04-15T22:54:39;99259.88;;;7.93;59.69
59315;BME280;46521;50.160;20.802;2023-04-15T23:04:41;99266.80;;;7.94;59.74
59315;BME280;46521;50.160;20.802;2023-04-15T23:14:42;99273.73;;;7.95;59.76
59315;BME280;46521;50.160;20.802;2023-04-15T23:24:43;99275.95;;;7.73;59.78
59315;BME280;46521;50.160;20.802;2023-04-15T23:34:46;99275.19;;;7.47;60.22
59315;BME280;46521;50.160;20.802;2023-04-15T23:44:47;99279.95;;;7.17;60.83
